Time;durP1;ratioP1;P1;durP2;ratioP2;P2;SDS_P1;SDS_P2;PMS_P1;PMS_P2;Temp;Humidity;BMP_temperature;BMP_pressure;BME280_temperature;BME280_humidity;BME280_pressure;Samples;Min_cycle;Max_cycle;Signal;HPM_P1;HPM_P2
2022/12/20 00:01:56;;;;;;;25.53;14.70;;;;;;;41.78;31.86;100913.09;4978938;28;20516;-74
2022/12/20 00:04:22;;;;;;;33.73;13.93;;;;;;;41.64;32.09;100896.19;4978862;28;20515;-73
2022/12/20 00:06:51;;;;;;;23.90;14.57;;;;;;;41.86;32.13;100896.66;4977749;28;20437;-75
2022/12/20 00:09:20;;;;;;;25.13;15.80;;;;;;;41.87;31.91;100897.50;4978664;28;20940;-75
2022/12/20 00:11:47;;;;;;;22.30;15.10;;;;;;;41.78;31.74;100894.81;4996581;28;20417;-76
2022/12/20 00:14:27;;;;;;;24.93;15.70;;;;;;;41.80;32.06;100897.22;4994944;28;20459;-76
2022/12/20 00:16:53;;;;;;;20.93;13.97;;;;;;;41.71;31.99;100888.28;4995049;28;20444;-76
2022/12/20 00:19:19;;;;;;;25.57;14.20;;;;;;;41.78;31.85;100881.19;4983179;28;20488;-76
2022/12/20 00:21:45;;;;;;;26.17;15.60;;;;;;;41.76;31.63;100883.47;4994821;28;20420;-75
2022/12/20 00:24:11;;;;;;;24.00;17.13;;;;;;;41.53;31.53;100863.91;4986491;28;20547;-77
2022/12/20 00:26:37;;;;;;;21.53;15.00;;;;;;;41.61;31.35;100868.47;4995012;28;20552;-77
2022/12/20 00:29:05;;;;;;;18.03;13.57;;;;;;;41.71;31.55;100882.84;4994565;28;20436;-77
2022/12/20 00:31:31;;;;;;;31.90;15.10;;;;;;;41.77;31.29;100882.34;4994549;28;20425;-76
2022/12/20 00:33:59;;;;;;;20.00;15.00;;;;;;;41.69;31.33;100876.94;4994639;28;20429;-76
2022/12/20 00:36:27;;;;;;;34.70;13.80;;;;;;;41.76;31.27;100883.47;4994303;28;21049;-76
2022/12/20 00:38:55;;;;;;;24.73;14.80;;;;;;;41.78;31.35;100883.94;4986432;28;20469;-74
2022/12/20 00:41:24;;;;;;;26.47;14.83;;;;;;;41.86;31.37;100872.16;4995935;28;20472;-72
2022/12/20 00:43:50;;;;;;;26.07;15.17;;;;;;;41.89;30.98;100869.91;4996162;28;20404;-74
2022/12/20 00:46:18;;;;;;;37.47;14.03;;;;;;;41.82;31.48;100867.72;4978222;28;20448;-74
2022/12/20 00:48:44;;;;;;;23.87;12.80;;;;;;;41.68;31.50;100856.25;4978006;28;20417;-76
2022/12/20 00:51:19;;;;;;;17.83;12.93;;;;;;;41.80;31.67;100869.97;4977777;28;20413;-76
2022/12/20 00:53:46;;;;;;;38.80;15.07;;;;;;;41.78;31.79;100869.50;5010466;28;20445;-74
2022/12/20 00:56:13;;;;;;;22.20;16.57;;;;;;;41.78;32.10;100862.13;4999839;28;20888;-74
2022/12/20 00:58:40;;;;;;;21.00;15.27;;;;;;;41.83;31.39;100859.22;4977732;28;20986;-76
2022/12/20 01:01:24;;;;;;;30.13;16.23;;;;;;;41.51;31.99;100858.00;4977734;28;20422;-76
2022/12/20 01:03:53;;;;;;;28.50;14.43;;;;;;;41.33;32.38;100851.88;4977844;28;20414;-75
2022/12/20 01:06:21;;;;;;;23.70;16.30;;;;;;;41.51;32.26;100860.72;4977770;28;20460;-72
2022/12/20 01:08:47;;;;;;;33.17;17.47;;;;;;;41.24;32.23;100848.34;4977919;28;20914;-76
2022/12/20 01:11:23;;;;;;;26.83;19.27;;;;;;;41.17;32.65;100848.09;4998848;28;20466;-76
2022/12/20 01:13:52;;;;;;;30.43;21.37;;;;;;;40.93;33.13;100845.16;4958281;28;20438;-76
2022/12/20 01:16:27;;;;;;;37.23;20.30;;;;;;;40.95;33.39;100841.03;4958141;28;20454;-75
2022/12/20 01:18:53;;;;;;;32.83;21.57;;;;;;;41.09;33.68;100838.06;4958213;28;20493;-75
2022/12/20 01:21:21;;;;;;;45.30;28.10;;;;;;;41.07;33.40;100848.47;4958234;28;20497;-75
2022/12/20 01:23:47;;;;;;;48.13;33.80;;;;;;;40.63;34.13;100849.75;4964671;28;20441;-74
2022/12/20 01:26:16;;;;;;;58.83;34.33;;;;;;;40.82;34.11;100844.69;4976552;28;20503;-73
2022/12/20 01:28:44;;;;;;;49.23;31.97;;;;;;;40.97;34.33;100838.75;4995041;28;20406;-74
2022/12/20 01:31:15;;;;;;;57.20;36.90;;;;;;;40.73;34.38;100838.53;4977229;28;20548;-74
2022/12/20 01:33:42;;;;;;;63.77;36.87;;;;;;;40.46;34.68;100837.00;4977340;28;20425;-74
2022/12/20 01:36:12;;;;;;;53.67;37.37;;;;;;;40.73;35.02;100831.16;4994795;28;20465;-74
2022/12/20 01:38:38;;;;;;;62.43;38.00;;;;;;;40.84;34.66;100837.03;5009735;28;20473;-74
2022/12/20 01:41:05;;;;;;;58.60;38.47;;;;;;;40.62;34.61;100838.06;4977106;28;20426;-76
2022/12/20 01:43:52;;;;;;;58.43;39.87;;;;;;;40.32;35.26;100831.72;4972505;28;20477;-74
2022/12/20 01:46:21;;;;;;;56.53;37.07;;;;;;;40.32;35.41;100829.00;4973830;28;20488;-73
2022/12/20 01:49:00;;;;;;;65.47;36.23;;;;;;;40.46;35.17;100823.41;4957573;28;20414;-73
2022/12/20 01:51:29;;;;;;;48.73;38.17;;;;;;;40.45;35.20;100810.91;4973788;28;20432;-74
2022/12/20 01:54:01;;;;;;;75.73;39.73;;;;;;;40.49;34.96;100815.41;4975045;28;20561;-74
2022/12/20 01:56:27;;;;;;;52.83;38.07;;;;;;;40.53;35.10;100815.56;4973874;28;20422;-76
2022/12/20 01:58:55;;;;;;;46.80;33.73;;;;;;;40.40;34.99;100816.53;4973406;28;20525;-76
2022/12/20 02:01:24;;;;;;;45.57;37.87;;;;;;;40.58;34.79;100809.97;4991108;28;20476;-74
2022/12/20 02:03:53;;;;;;;46.90;34.97;;;;;;;40.64;34.78;100811.38;4991974;28;20453;-76
2022/12/20 02:06:23;;;;;;;57.43;43.03;;;;;;;40.51;35.02;100813.16;4992719;28;20421;-76
2022/12/20 02:08:51;;;;;;;57.90;42.50;;;;;;;40.34;35.16;100810.47;4992748;28;20445;-74
2022/12/20 02:11:20;;;;;;;59.57;38.27;;;;;;;40.26;35.23;100814.00;4992781;28;20416;-76
2022/12/20 02:14:04;;;;;;;64.63;38.40;;;;;;;40.48;35.20;100805.66;4992749;28;20425;-74
2022/12/20 02:16:39;;;;;;;48.00;36.93;;;;;;;40.45;34.88;100811.69;4992627;28;20425;-74
2022/12/20 02:19:14;;;;;;;56.00;36.57;;;;;;;40.57;35.15;100799.38;4993133;28;20933;-75
2022/12/20 02:22:25;;;;;;;42.97;33.80;;;;;;;40.66;34.82;100790.06;4976287;28;20421;-76
2022/12/20 02:25:35;;;;;;;46.70;32.87;;;;;;;40.73;34.46;100793.06;4969844;28;20457;-75
2022/12/20 02:28:32;;;;;;;46.20;32.37;;;;;;;40.80;34.78;100792.56;4961894;28;20958;-76
2022/12/20 02:31:02;;;;;;;60.77;35.10;;;;;;;40.81;34.12;100800.38;4972902;28;20439;-74
2022/12/20 02:33:28;;;;;;;51.00;35.97;;;;;;;40.52;34.62;100798.47;4972584;28;20426;-72
2022/12/20 02:35:54;;;;;;;50.37;34.20;;;;;;;40.16;35.54;100792.63;4956673;28;20470;-73
2022/12/20 02:38:28;;;;;;;43.73;31.27;;;;;;;40.31;35.01;100794.81;4956654;28;20462;-76
2022/12/20 02:41:02;;;;;;;47.50;31.67;;;;;;;40.20;34.96;100793.56;4956708;28;20796;-76
2022/12/20 02:46:18;;;;;;;46.60;28.80;;;;;;;40.01;35.50;100785.72;4974075;28;20922;-74
2022/12/20 02:48:48;;;;;;;45.07;31.73;;;;;;;39.99;35.29;100794.22;4956600;28;20419;-74
2022/12/20 02:51:17;;;;;;;43.63;29.30;;;;;;;39.71;35.97;100782.09;4975234;28;20518;-74
2022/12/20 02:53:43;;;;;;;56.10;29.07;;;;;;;39.83;35.98;100792.31;4975750;28;20433;-74
2022/12/20 02:56:18;;;;;;;44.43;30.30;;;;;;;39.92;35.54;100784.97;4975740;28;20425;-76
2022/12/20 02:59:10;;;;;;;56.13;34.37;;;;;;;40.17;35.62;100786.84;4975571;28;20492;-71
2022/12/20 03:01:41;;;;;;;65.33;46.50;;;;;;;40.16;35.22;100777.13;4975676;28;20967;-73
2022/12/20 03:04:08;;;;;;;71.70;46.27;;;;;;;40.35;35.07;100794.97;4974572;28;20499;-73
2022/12/20 03:06:34;;;;;;;77.87;49.33;;;;;;;40.48;34.73;100788.56;4975709;28;20425;-73
2022/12/20 03:09:00;;;;;;;87.23;51.07;;;;;;;40.24;34.78;100778.22;4975500;28;20794;-74
2022/12/20 03:11:26;;;;;;;72.67;47.90;;;;;;;40.42;35.02;100784.38;4976307;28;20429;-74
2022/12/20 03:13:52;;;;;;;68.60;44.57;;;;;;;40.35;35.06;100776.75;4975594;28;20413;-74
2022/12/20 03:16:18;;;;;;;49.73;36.67;;;;;;;40.24;35.02;100773.56;4975568;28;20442;-73
2022/12/20 03:18:44;;;;;;;48.73;34.60;;;;;;;40.39;34.81;100780.41;4975547;28;20523;-73
2022/12/20 03:21:11;;;;;;;59.63;36.43;;;;;;;40.17;34.79;100775.19;5003463;28;20449;-73
2022/12/20 03:23:37;;;;;;;78.40;49.00;;;;;;;39.90;35.40;100779.84;4975422;28;20425;-74
2022/12/20 03:26:03;;;;;;;77.90;49.90;;;;;;;40.22;35.14;100781.25;4975441;28;20463;-75
2022/12/20 03:28:29;;;;;;;81.07;51.60;;;;;;;39.92;35.50;100783.03;4975315;28;20436;-76
2022/12/20 03:30:55;;;;;;;57.83;45.60;;;;;;;40.23;35.23;100780.13;4975432;28;20421;-74
2022/12/20 03:33:22;;;;;;;54.03;34.80;;;;;;;40.22;35.04;100781.25;4975373;28;20428;-73
2022/12/20 03:35:48;;;;;;;71.30;43.50;;;;;;;40.23;35.32;100771.97;4971853;28;20978;-75
2022/12/20 03:38:14;;;;;;;59.77;38.80;;;;;;;40.21;34.95;100774.22;4961485;28;20447;-74
2022/12/20 03:40:39;;;;;;;65.60;45.23;;;;;;;39.99;35.72;100783.34;4952833;28;20499;-73
2022/12/20 03:43:05;;;;;;;60.50;40.50;;;;;;;39.93;36.08;100779.19;4952722;29;20447;-75
2022/12/20 03:45:31;;;;;;;64.47;40.30;;;;;;;40.08;35.34;100775.19;4968607;28;20978;-74
2022/12/20 03:47:57;;;;;;;50.87;31.00;;;;;;;39.93;36.11;100770.25;4972301;28;20442;-76
2022/12/20 03:50:23;;;;;;;41.90;27.63;;;;;;;39.68;36.25;100769.97;4972123;28;20418;-75
2022/12/20 03:52:49;;;;;;;41.37;26.00;;;;;;;39.87;35.98;100782.41;4972138;28;20841;-73
2022/12/20 03:55:15;;;;;;;40.67;28.87;;;;;;;39.88;36.33;100778.56;4958866;28;20438;-75
2022/12/20 03:57:42;;;;;;;32.67;26.17;;;;;;;40.00;36.33;100782.22;4952742;29;20434;-75
2022/12/20 04:00:09;;;;;;;39.77;24.57;;;;;;;39.72;36.38;100786.44;4954004;28;20454;-74
2022/12/20 04:02:58;;;;;;;38.23;24.90;;;;;;;39.25;37.35;100785.41;4952776;29;20548;-76
2022/12/20 04:05:38;;;;;;;33.60;27.63;;;;;;;39.27;37.27;100794.03;4969030;28;20443;-76
2022/12/20 04:09:08;;;;;;;32.10;24.93;;;;;;;38.58;38.60;100789.13;4954333;29;20432;-75
2022/12/20 04:11:15;;;;;;;36.47;24.87;;;;;;;39.07;37.78;100815.19;4948396;28;20563;-74
2022/12/20 04:13:50;;;;;;;29.43;24.57;;;;;;;39.35;37.53;100810.34;4953998;28;20423;-75
2022/12/20 04:16:18;;;;;;;34.33;26.43;;;;;;;39.58;37.15;100810.97;4966825;28;20854;-73
2022/12/20 04:18:44;;;;;;;32.57;25.97;;;;;;;39.04;37.73;100818.53;4959364;28;20443;-75
2022/12/20 04:21:11;;;;;;;32.43;23.43;;;;;;;39.26;37.08;100814.13;4951997;29;20843;-71
2022/12/20 04:23:40;;;;;;;29.40;23.57;;;;;;;39.29;37.40;100813.50;4952453;28;20455;-76
2022/12/20 04:26:07;;;;;;;45.97;28.60;;;;;;;38.98;37.84;100822.50;4953326;28;20407;-73
2022/12/20 04:28:34;;;;;;;43.87;25.77;;;;;;;39.43;37.38;100819.59;4955156;29;20443;-75
2022/12/20 04:31:00;;;;;;;41.87;28.90;;;;;;;39.29;37.61;100811.59;4972036;28;20422;-75
2022/12/20 04:33:33;;;;;;;33.03;25.20;;;;;;;39.05;37.43;100803.84;4955726;28;20443;-72
2022/12/20 04:35:59;;;;;;;37.07;25.47;;;;;;;38.88;37.97;100803.81;4955965;28;20471;-76
2022/12/20 04:38:25;;;;;;;30.17;24.37;;;;;;;39.35;37.37;100806.78;4955726;29;20466;-73
2022/12/20 04:40:53;;;;;;;40.30;24.20;;;;;;;39.55;37.13;100817.06;4955793;29;20427;-74
2022/12/20 04:43:21;;;;;;;38.93;26.93;;;;;;;39.80;36.66;100811.97;4972013;28;20443;-76
2022/12/20 04:45:48;;;;;;;38.10;25.10;;;;;;;39.70;36.58;100805.72;4955654;29;20471;-76
2022/12/20 04:48:15;;;;;;;38.40;28.80;;;;;;;39.53;36.80;100813.84;4955004;28;20451;-75
2022/12/20 04:50:41;;;;;;;42.53;27.20;;;;;;;39.66;36.43;100818.38;4955665;29;20407;-71
2022/12/20 04:55:55;;;;;;;36.57;29.00;;;;;;;39.44;37.26;100826.63;4956981;29;20442;-73
2022/12/20 04:58:21;;;;;;;34.00;26.83;;;;;;;39.15;37.43;100833.38;4955405;29;20411;-75
2022/12/20 05:00:46;;;;;;;34.23;30.10;;;;;;;39.42;37.27;100821.50;4955085;29;20446;-73
2022/12/20 05:03:12;;;;;;;38.20;26.77;;;;;;;39.36;37.21;100819.28;4955575;29;20422;-75
2022/12/20 05:05:38;;;;;;;35.80;26.00;;;;;;;39.30;37.36;100831.41;4955378;28;20478;-73
2022/12/20 05:08:04;;;;;;;38.90;28.37;;;;;;;39.25;37.60;100824.19;4955063;29;20951;-73
2022/12/20 05:10:37;;;;;;;38.80;28.77;;;;;;;39.30;37.56;100826.75;4955181;29;20415;-75
2022/12/20 05:13:03;;;;;;;39.13;28.07;;;;;;;38.92;38.16;100829.19;4955167;29;20934;-75
2022/12/20 05:15:29;;;;;;;37.70;29.83;;;;;;;39.30;37.65;100832.19;4955331;28;20419;-73
2022/12/20 05:17:59;;;;;;;44.13;31.03;;;;;;;39.57;37.19;100835.72;4954374;29;20443;-73
2022/12/20 05:20:30;;;;;;;45.93;30.90;;;;;;;39.68;36.84;100835.13;4954892;29;20471;-73
2022/12/20 05:28:28;;;;;;;43.17;29.67;;;;;;;39.64;36.91;100834.16;4956292;28;20395;-75
2022/12/20 05:30:54;;;;;;;38.40;29.27;;;;;;;39.81;36.60;100836.09;4954537;29;21015;-73
2022/12/20 05:33:20;;;;;;;36.00;28.90;;;;;;;39.15;37.63;100833.38;4954173;28;20545;-73
2022/12/20 05:35:46;;;;;;;41.10;31.07;;;;;;;39.47;37.51;100851.22;4954349;28;20467;-73
2022/12/20 05:38:11;;;;;;;42.93;32.70;;;;;;;39.70;36.75;100849.19;4959704;28;20498;-73
2022/12/20 05:40:38;;;;;;;45.90;31.30;;;;;;;39.17;37.68;100849.41;4964734;28;20481;-73
2022/12/20 05:43:05;;;;;;;40.77;30.57;;;;;;;39.49;36.90;100843.56;4962151;28;20419;-73
2022/12/20 05:45:31;;;;;;;35.37;30.27;;;;;;;39.54;37.24;100844.53;4962672;28;20442;-73
2022/12/20 05:47:59;;;;;;;45.17;32.97;;;;;;;39.47;36.80;100859.38;4970593;28;20494;-74
2022/12/20 05:50:31;;;;;;;47.27;34.83;;;;;;;39.03;37.68;100860.31;4957313;28;20505;-75
2022/12/20 05:52:57;;;;;;;49.80;33.53;;;;;;;39.14;37.45;100864.34;4958739;28;20427;-74
2022/12/20 05:55:23;;;;;;;54.83;34.30;;;;;;;38.66;38.29;100851.50;4951151;28;20486;-73
2022/12/20 05:57:49;;;;;;;58.27;35.77;;;;;;;39.08;37.91;100857.47;4944515;29;20447;-74
2022/12/20 06:00:16;;;;;;;64.50;34.47;;;;;;;39.20;37.21;100863.13;4942597;28;20456;-73
2022/12/20 06:02:42;;;;;;;54.97;38.00;;;;;;;39.39;37.25;100862.03;4942837;29;20426;-76
2022/12/20 06:05:08;;;;;;;64.00;39.83;;;;;;;39.31;36.96;100860.13;4952868;28;20423;-72
2022/12/20 06:07:34;;;;;;;58.03;35.87;;;;;;;39.45;37.22;100860.78;4954777;29;20489;-72
2022/12/20 06:10:00;;;;;;;49.00;36.70;;;;;;;39.49;36.86;100862.56;4953085;29;20470;-76
2022/12/20 06:12:26;;;;;;;48.00;35.73;;;;;;;39.59;37.21;100866.84;4959695;28;20485;-73
2022/12/20 06:14:52;;;;;;;52.77;35.80;;;;;;;39.48;36.67;100874.53;4961338;28;21065;-75
2022/12/20 06:17:18;;;;;;;56.80;40.70;;;;;;;39.52;36.37;100876.59;4967605;28;20509;-72
2022/12/20 06:19:45;;;;;;;88.37;47.10;;;;;;;39.52;36.62;100882.81;4970335;28;20485;-73
2022/12/20 06:22:11;;;;;;;62.67;45.20;;;;;;;39.50;36.55;100880.44;4946218;29;20428;-73
2022/12/20 06:24:38;;;;;;;70.40;49.57;;;;;;;39.58;36.54;100878.84;4979008;28;21017;-73
2022/12/20 06:27:05;;;;;;;70.00;49.73;;;;;;;39.38;36.67;100880.25;4971169;28;20466;-72
2022/12/20 06:29:32;;;;;;;73.87;45.13;;;;;;;39.74;36.53;100884.66;4934552;29;20844;-72
2022/12/20 06:31:59;;;;;;;66.33;46.70;;;;;;;39.73;36.34;100883.84;4949648;28;20418;-72
2022/12/20 06:34:25;;;;;;;67.90;43.90;;;;;;;39.86;36.16;100886.75;4963439;28;20964;-73
2022/12/20 06:36:51;;;;;;;72.73;50.83;;;;;;;39.60;36.38;100886.69;4977924;28;20469;-74
2022/12/20 06:39:17;;;;;;;70.40;48.83;;;;;;;39.70;36.43;100894.53;4977544;28;20464;-72
2022/12/20 06:41:43;;;;;;;59.90;43.80;;;;;;;39.66;36.03;100894.41;4981599;28;20973;-72
2022/12/20 06:44:09;;;;;;;62.27;44.60;;;;;;;39.10;37.06;100898.66;4980284;28;20871;-73
2022/12/20 06:46:35;;;;;;;68.03;43.00;;;;;;;39.08;36.84;100900.06;4981039;28;20452;-73
2022/12/20 06:49:01;;;;;;;58.03;41.93;;;;;;;39.24;37.12;100904.00;4970990;28;20522;-72
2022/12/20 06:51:27;;;;;;;52.97;36.30;;;;;;;39.45;36.76;100918.56;4962704;28;20432;-72
2022/12/20 06:53:53;;;;;;;72.50;40.80;;;;;;;39.29;37.06;100913.91;4970712;28;20434;-73
2022/12/20 06:56:19;;;;;;;60.63;42.80;;;;;;;39.08;37.83;100916.34;4973319;28;20557;-72
2022/12/20 06:58:46;;;;;;;51.00;38.93;;;;;;;39.53;37.12;100917.00;4972593;28;20454;-72
2022/12/20 07:01:12;;;;;;;61.57;40.43;;;;;;;39.49;37.12;100918.75;4974147;28;20398;-72
2022/12/20 07:03:39;;;;;;;97.03;43.40;;;;;;;39.69;36.74;100922.81;4979676;28;20421;-72
2022/12/20 07:06:05;;;;;;;77.60;42.30;;;;;;;39.80;36.46;100934.19;4953376;28;20418;-72
2022/12/20 07:08:31;;;;;;;60.00;43.57;;;;;;;39.81;36.37;100942.00;4956265;28;20481;-72
2022/12/20 07:11:04;;;;;;;66.77;42.07;;;;;;;39.89;36.36;100933.06;4970799;28;20927;-72
2022/12/20 07:13:30;;;;;;;64.93;44.00;;;;;;;39.57;36.61;100933.47;4971814;28;20438;-71
2022/12/20 07:16:04;;;;;;;70.30;42.37;;;;;;;39.52;37.18;100945.25;4972662;28;20537;-75
2022/12/20 07:18:30;;;;;;;59.13;41.97;;;;;;;39.42;37.27;100945.56;4973818;28;20465;-73
2022/12/20 07:21:04;;;;;;;67.40;42.03;;;;;;;39.40;37.42;100955.91;4974187;28;20398;-74
2022/12/20 07:23:31;;;;;;;53.13;38.17;;;;;;;39.70;36.66;100960.50;4972634;28;21372;-71
2022/12/20 07:25:59;;;;;;;51.13;36.77;;;;;;;39.70;36.71;100965.94;4969561;28;20414;-70
2022/12/20 07:28:26;;;;;;;60.20;36.07;;;;;;;39.85;36.84;100981.00;4953400;28;20428;-70
2022/12/20 07:30:53;;;;;;;49.73;34.07;;;;;;;39.93;36.70;100971.25;4961331;28;20442;-71
2022/12/20 07:33:20;;;;;;;47.90;33.07;;;;;;;39.74;36.76;100977.78;4971449;28;20430;-67
2022/12/20 07:35:46;;;;;;;52.07;34.30;;;;;;;39.85;37.05;100977.50;4971474;28;20462;-71
2022/12/20 07:38:12;;;;;;;49.03;34.30;;;;;;;39.98;36.82;100985.50;4965129;28;20434;-72
2022/12/20 07:40:42;;;;;;;62.03;34.83;;;;;;;39.75;37.02;100992.16;4969634;28;20406;-71
2022/12/20 07:43:09;;;;;;;68.87;39.20;;;;;;;39.62;37.67;100995.78;4971849;28;20433;-72
2022/12/20 07:45:36;;;;;;;61.33;35.10;;;;;;;39.76;37.27;100989.13;4970993;28;20407;-72
2022/12/20 07:48:06;;;;;;;57.23;39.37;;;;;;;39.15;38.48;100992.66;4971345;28;20469;-72
2022/12/20 07:50:33;;;;;;;65.53;37.80;;;;;;;39.49;37.83;101008.34;4970000;28;20407;-72
2022/12/20 07:53:00;;;;;;;60.10;37.20;;;;;;;38.58;39.33;101008.69;4971482;28;20435;-71
2022/12/20 07:55:30;;;;;;;66.93;39.67;;;;;;;38.22;40.09;101017.59;4969921;28;20410;-72
2022/12/20 07:58:03;;;;;;;69.97;42.13;;;;;;;39.02;38.89;101020.69;4986144;28;20533;-70
2022/12/20 08:00:30;;;;;;;88.50;56.97;;;;;;;39.34;38.46;101022.31;4986085;28;20875;-71
2022/12/20 08:03:05;;;;;;;66.93;45.77;;;;;;;39.15;38.66;101023.31;4973619;28;20438;-70
2022/12/20 08:05:34;;;;;;;106.03;58.10;;;;;;;39.20;38.12;101016.97;4973429;28;20795;-73
2022/12/20 08:08:01;;;;;;;86.20;52.93;;;;;;;39.47;37.95;101024.13;4971998;28;20970;-73
2022/12/20 08:10:27;;;;;;;104.40;59.20;;;;;;;39.69;37.60;101020.56;4975416;28;20925;-72
2022/12/20 08:12:54;;;;;;;68.80;40.60;;;;;;;38.96;38.56;101020.78;4975162;28;20821;-72
2022/12/20 08:15:21;;;;;;;81.60;49.00;;;;;;;39.30;38.19;101022.16;4975203;28;20458;-72
2022/12/20 08:17:48;;;;;;;84.33;44.00;;;;;;;38.99;39.00;101024.81;4975386;28;20460;-73
2022/12/20 08:20:14;;;;;;;68.17;47.50;;;;;;;39.38;38.49;101026.00;4975027;28;21028;-73
2022/12/20 08:22:40;;;;;;;80.77;43.90;;;;;;;39.40;37.97;101031.91;4974045;28;20442;-73
2022/12/20 08:25:07;;;;;;;73.00;44.07;;;;;;;38.72;39.18;101033.88;4975246;28;20573;-73
2022/12/20 08:27:33;;;;;;;69.80;44.70;;;;;;;38.96;39.28;101030.84;4974776;28;20429;-73
2022/12/20 08:29:59;;;;;;;73.03;44.60;;;;;;;38.91;39.33;101036.41;4975409;28;20415;-72
2022/12/20 08:32:25;;;;;;;88.73;51.97;;;;;;;39.02;39.33;101032.31;4975104;28;20422;-72
2022/12/20 08:34:52;;;;;;;79.03;51.23;;;;;;;39.18;38.97;101039.00;4977366;28;20430;-72
2022/12/20 08:37:18;;;;;;;83.80;51.97;;;;;;;39.60;38.23;101025.97;4978412;28;20410;-72
2022/12/20 08:39:44;;;;;;;73.27;49.77;;;;;;;39.40;38.56;101038.16;4978132;28;20875;-72
2022/12/20 08:42:11;;;;;;;84.93;52.93;;;;;;;39.28;39.19;101037.13;4977954;28;20420;-72
2022/12/20 08:44:37;;;;;;;70.73;44.17;;;;;;;39.22;38.73;101034.53;4995603;28;20515;-70
2022/12/20 08:47:03;;;;;;;63.50;38.47;;;;;;;39.65;38.17;101033.97;4994283;28;21033;-71
2022/12/20 08:49:29;;;;;;;76.43;43.00;;;;;;;39.08;39.02;101036.50;4994396;28;21007;-70
2022/12/20 08:51:55;;;;;;;62.57;41.83;;;;;;;39.73;37.75;101027.78;4994682;28;20822;-70
2022/12/20 08:54:21;;;;;;;56.37;38.93;;;;;;;39.08;38.71;101041.94;4981819;28;20803;-71
2022/12/20 08:56:49;;;;;;;59.00;41.37;;;;;;;39.44;38.34;101033.69;4978190;28;20798;-74
2022/12/20 08:59:15;;;;;;;73.10;43.30;;;;;;;38.81;39.24;101039.38;4993148;28;20462;-74
2022/12/20 09:01:41;;;;;;;57.73;37.60;;;;;;;39.39;38.42;101041.19;4995462;28;20801;-73
2022/12/20 09:04:14;;;;;;;52.40;38.10;;;;;;;39.66;38.26;101037.50;4987501;28;20445;-72
2022/12/20 09:06:45;;;;;;;55.83;33.80;;;;;;;39.13;38.64;101030.16;4994335;28;20429;-74
2022/12/20 09:09:12;;;;;;;54.77;34.67;;;;;;;39.73;37.44;101030.50;5009901;28;20413;-71
2022/12/20 09:11:38;;;;;;;52.43;36.40;;;;;;;39.71;37.96;101043.56;4993540;28;20428;-74
2022/12/20 09:14:04;;;;;;;60.90;40.87;;;;;;;39.64;37.82;101043.22;4984081;28;20439;-74
2022/12/20 09:16:32;;;;;;;44.33;29.47;;;;;;;39.47;37.97;101037.69;4977523;28;20433;-73
2022/12/20 09:19:02;;;;;;;41.57;30.77;;;;;;;39.70;37.80;101035.75;4977474;28;20469;-74
2022/12/20 09:21:28;;;;;;;41.60;30.63;;;;;;;39.67;38.05;101023.59;4977700;28;20432;-73
2022/12/20 09:23:55;;;;;;;43.87;30.50;;;;;;;39.72;37.95;101031.63;4976711;28;20461;-76
2022/12/20 09:26:22;;;;;;;58.67;34.83;;;;;;;39.77;37.54;101036.09;4977938;28;20430;-76
2022/12/20 09:28:49;;;;;;;41.60;26.77;;;;;;;39.54;38.03;101015.56;4992820;28;21047;-75
2022/12/20 09:31:18;;;;;;;43.13;27.43;;;;;;;39.67;38.21;101037.19;4977389;28;20426;-74
2022/12/20 09:33:44;;;;;;;55.27;32.37;;;;;;;39.45;38.29;101029.88;5001802;28;20457;-74
2022/12/20 09:36:14;;;;;;;49.73;32.00;;;;;;;39.88;37.91;101042.81;5009544;28;20568;-72
2022/12/20 09:38:40;;;;;;;34.40;26.00;;;;;;;39.81;37.94;101037.06;4977046;28;20468;-74
2022/12/20 09:41:21;;;;;;;41.67;28.63;;;;;;;39.59;38.00;101034.38;5010124;28;20422;-74
2022/12/20 09:43:48;;;;;;;31.83;25.77;;;;;;;39.34;38.34;101044.03;4983207;28;20421;-75
2022/12/20 09:46:15;;;;;;;28.80;21.90;;;;;;;39.05;39.44;101039.06;4983334;28;20418;-76
2022/12/20 09:48:42;;;;;;;32.13;21.63;;;;;;;39.69;38.29;101034.16;4961072;28;20491;-77
2022/12/20 09:51:43;;;;;;;37.50;23.30;;;;;;;39.14;38.94;101035.28;4976098;28;20504;-72
2022/12/20 09:54:29;;;;;;;31.63;24.97;;;;;;;39.88;37.67;101033.88;4994518;28;20499;-72
2022/12/20 09:57:05;;;;;;;38.63;24.73;;;;;;;40.17;37.18;101028.69;4993725;28;20512;-72
2022/12/20 09:59:36;;;;;;;33.40;22.90;;;;;;;40.42;36.40;101029.03;4994698;28;20885;-75
2022/12/20 10:02:11;;;;;;;58.27;31.67;;;;;;;40.55;36.08;101025.38;4993047;28;20418;-74
2022/12/20 10:04:38;;;;;;;39.83;24.97;;;;;;;40.52;35.64;101017.88;5005881;28;20417;-74
2022/12/20 10:07:54;;;;;;;47.20;28.20;;;;;;;40.58;35.62;101002.19;5009366;28;20448;-74
2022/12/20 10:10:47;;;;;;;30.33;23.53;;;;;;;40.15;36.48;101009.22;4896230;29;20869;-74
2022/12/20 10:13:21;;;;;;;36.83;26.90;;;;;;;40.18;36.39;101005.03;4900702;29;20417;-74
2022/12/20 10:15:54;;;;;;;52.27;25.60;;;;;;;40.75;35.92;100994.81;4972675;28;20429;-71
2022/12/20 10:18:40;;;;;;;30.23;21.50;;;;;;;41.10;34.95;100983.06;4993030;28;20413;-71
2022/12/20 10:21:26;;;;;;;32.90;19.93;;;;;;;41.16;34.73;100971.69;4992735;28;20421;-70
2022/12/20 10:24:02;;;;;;;22.73;20.13;;;;;;;41.24;34.37;100972.75;4993542;28;20449;-71
2022/12/20 10:26:31;;;;;;;25.27;20.27;;;;;;;41.21;34.74;100970.72;4976388;28;20421;-73
2022/12/20 10:28:57;;;;;;;28.33;16.73;;;;;;;41.42;34.81;100963.44;4992678;28;20421;-73
2022/12/20 10:31:24;;;;;;;23.67;16.43;;;;;;;41.25;34.84;100967.03;4976187;28;20591;-70
2022/12/20 10:33:50;;;;;;;26.30;18.67;;;;;;;41.23;34.60;100963.00;4982073;28;20556;-71
2022/12/20 10:36:27;;;;;;;31.37;15.97;;;;;;;41.20;34.97;100966.41;4992332;28;20472;-71
2022/12/20 10:38:59;;;;;;;22.07;16.10;;;;;;;41.28;34.95;100965.56;4992335;28;20464;-74
2022/12/20 10:41:31;;;;;;;17.10;14.03;;;;;;;41.43;34.81;100958.78;4992428;28;20448;-71
2022/12/20 10:44:01;;;;;;;28.40;18.23;;;;;;;41.39;35.07;100950.47;4985388;28;20449;-71
2022/12/20 10:46:55;;;;;;;23.37;15.00;;;;;;;41.31;35.42;100946.66;4976103;28;20447;-70
2022/12/20 10:49:29;;;;;;;21.70;16.87;;;;;;;41.30;35.36;100947.75;4972739;28;20452;-70
2022/12/20 10:52:01;;;;;;;21.93;17.63;;;;;;;41.21;35.70;100943.50;4993910;28;20890;-71
2022/12/20 10:54:37;;;;;;;32.37;20.87;;;;;;;41.26;36.16;100943.31;4993498;28;20417;-71
2022/12/20 10:57:22;;;;;;;25.30;19.17;;;;;;;41.28;35.37;100944.56;4992172;28;20512;-71
2022/12/20 10:59:53;;;;;;;29.63;19.50;;;;;;;41.27;35.81;100951.16;4993759;28;20452;-72
2022/12/20 11:02:32;;;;;;;25.50;18.47;;;;;;;41.26;36.08;100940.59;4992068;28;20513;-73
2022/12/20 11:05:17;;;;;;;26.67;19.10;;;;;;;41.39;35.50;100936.06;4977445;28;20850;-74
2022/12/20 11:08:12;;;;;;;30.23;19.80;;;;;;;41.05;35.71;100924.19;4991860;28;20441;-77
2022/12/20 11:10:38;;;;;;;25.90;18.57;;;;;;;40.97;35.63;100909.50;4964906;28;20509;-74
2022/12/20 11:13:05;;;;;;;27.67;19.20;;;;;;;40.91;35.98;100905.34;4975686;28;20453;-73
2022/12/20 11:15:34;;;;;;;23.27;15.73;;;;;;;40.92;36.28;100900.72;4991847;28;20449;-75
2022/12/20 11:18:17;;;;;;;26.00;16.07;;;;;;;41.22;35.86;100894.16;4991962;28;20436;-73
2022/12/20 11:21:05;;;;;;;24.00;16.20;;;;;;;40.91;35.98;100896.41;4991720;28;20471;-73
2022/12/20 11:23:47;;;;;;;24.93;16.47;;;;;;;40.82;35.82;100885.50;4989086;28;20528;-73
2022/12/20 11:26:35;;;;;;;22.40;16.73;;;;;;;40.84;36.20;100883.28;4991861;28;20440;-73
2022/12/20 11:29:18;;;;;;;25.53;17.10;;;;;;;41.00;35.43;100876.19;4975651;28;20416;-73
2022/12/20 11:32:29;;;;;;;25.10;15.60;;;;;;;40.83;35.24;100876.25;4975366;28;20425;-73
2022/12/20 11:35:13;;;;;;;30.73;18.87;;;;;;;41.14;34.58;100867.81;5005296;28;20409;-71